createdAt,value
2018-05-17T00:00:43.143Z,24.43
2018-05-17T00:03:10.527Z,24.40
2018-05-17T00:05:37.919Z,23.93
2018-05-17T00:08:05.307Z,23.60
2018-05-17T00:10:32.696Z,23.33
2018-05-17T00:13:00.096Z,23.30
2018-05-17T00:15:27.632Z,25.20
2018-05-17T00:17:55.024Z,24.37
2018-05-17T00:20:22.410Z,24.17
2018-05-17T00:22:49.808Z,23.10
2018-05-17T00:25:17.190Z,23.90
2018-05-17T00:27:44.592Z,23.77
2018-05-17T00:30:11.984Z,23.07
2018-05-17T00:32:39.383Z,22.03
2018-05-17T00:35:06.773Z,22.37
2018-05-17T00:37:34.158Z,22.30
2018-05-17T00:40:01.551Z,21.17
2018-05-17T00:42:28.943Z,20.83
2018-05-17T00:44:56.343Z,20.20
2018-05-17T00:47:23.735Z,19.63
2018-05-17T00:49:51.218Z,20.50
2018-05-17T00:52:18.631Z,20.43
2018-05-17T00:54:46.215Z,19.07
2018-05-17T00:57:13.610Z,19.00
2018-05-17T00:59:41.084Z,19.37
2018-05-17T01:02:08.391Z,18.70
2018-05-17T01:04:35.779Z,19.37
2018-05-17T01:07:03.166Z,18.97
2018-05-17T01:09:30.582Z,20.23
2018-05-17T01:11:57.979Z,19.40
2018-05-17T01:14:25.367Z,18.03
2018-05-17T01:16:52.760Z,18.90
2018-05-17T01:19:20.298Z,17.80
2018-05-17T01:21:47.682Z,18.10
2018-05-17T01:24:15.134Z,18.50
2018-05-17T01:26:42.565Z,18.97
2018-05-17T01:29:09.912Z,18.13
2018-05-17T01:31:37.291Z,18.03
2018-05-17T01:34:04.688Z,17.90
2018-05-17T01:36:32.075Z,17.47
2018-05-17T01:38:59.470Z,17.07
2018-05-17T01:41:26.854Z,17.53
2018-05-17T01:43:54.255Z,18.73
2018-05-17T01:46:21.638Z,17.93
2018-05-17T01:48:49.036Z,18.97
2018-05-17T01:51:16.423Z,18.30
2018-05-17T01:53:43.878Z,17.17
2018-05-17T01:56:11.271Z,17.53
2018-05-17T01:58:38.654Z,17.50
2018-05-17T02:01:06.054Z,18.60
2018-05-17T02:03:33.443Z,16.10
2018-05-17T02:06:00.875Z,17.07
2018-05-17T02:08:28.254Z,16.63
2018-05-17T02:10:55.669Z,17.27
2018-05-17T02:13:23.056Z,17.50
2018-05-17T02:15:50.447Z,17.80
2018-05-17T02:18:17.842Z,17.40
2018-05-17T02:20:45.222Z,17.10
2018-05-17T02:23:12.614Z,17.60
2018-05-17T02:25:40.007Z,17.87
2018-05-17T02:28:07.402Z,18.33
2018-05-17T02:30:34.786Z,17.90
2018-05-17T02:33:02.175Z,18.40
2018-05-17T02:35:29.568Z,17.57
2018-05-17T02:37:56.963Z,18.43
2018-05-17T02:40:24.355Z,18.83
2018-05-17T02:42:51.739Z,19.90
2018-05-17T02:45:19.147Z,19.57
2018-05-17T02:47:46.540Z,19.20
2018-05-17T02:50:13.918Z,18.43
2018-05-17T02:52:41.314Z,20.60
2018-05-17T02:55:08.703Z,18.47
2018-05-17T02:57:36.107Z,18.67
2018-05-17T03:00:03.495Z,18.83
2018-05-17T03:02:30.895Z,19.37
2018-05-17T03:04:58.275Z,18.20
2018-05-17T03:07:25.671Z,17.43
2018-05-17T03:09:53.062Z,19.13
2018-05-17T03:12:20.478Z,19.20
2018-05-17T03:14:47.871Z,19.30
2018-05-17T03:17:15.262Z,20.33
2018-05-17T03:19:42.658Z,20.60
2018-05-17T03:22:10.047Z,21.10
2018-05-17T03:24:37.442Z,21.83
2018-05-17T03:27:04.832Z,21.53
2018-05-17T03:29:32.223Z,22.10
2018-05-17T03:31:59.609Z,21.07
2018-05-17T03:34:27.170Z,22.20
2018-05-17T03:36:54.554Z,23.07
2018-05-17T03:39:21.954Z,22.13
2018-05-17T03:41:49.350Z,23.27
2018-05-17T03:44:16.735Z,23.60
2018-05-17T03:46:44.136Z,22.37
2018-05-17T03:49:11.529Z,22.10
2018-05-17T03:51:38.919Z,21.70
2018-05-17T03:54:06.311Z,20.67
2018-05-17T03:56:33.717Z,21.13
2018-05-17T03:59:01.113Z,19.90
2018-05-17T04:01:40.150Z,20.73
2018-05-17T04:04:19.334Z,22.07
2018-05-17T04:06:46.722Z,20.07
2018-05-17T04:09:14.118Z,21.77
2018-05-17T04:11:41.515Z,21.87
2018-05-17T04:14:08.898Z,22.00
2018-05-17T04:16:36.295Z,22.07
2018-05-17T04:19:03.694Z,22.30
2018-05-17T04:21:31.104Z,19.87
2018-05-17T04:23:58.494Z,21.90
2018-05-17T04:26:25.938Z,19.00
2018-05-17T04:28:53.307Z,18.77
2018-05-17T04:31:20.688Z,19.57
2018-05-17T04:33:48.087Z,19.50
2018-05-17T04:36:16.282Z,18.77
2018-05-17T04:38:43.665Z,19.57
2018-05-17T04:41:11.062Z,20.00
2018-05-17T04:43:38.451Z,19.90
2018-05-17T04:46:05.887Z,19.87
2018-05-17T04:48:33.259Z,21.70
2018-05-17T04:51:00.646Z,20.60
2018-05-17T04:53:28.037Z,22.83
2018-05-17T04:55:55.424Z,20.80
2018-05-17T04:58:22.823Z,20.23
2018-05-17T05:00:50.216Z,21.73
2018-05-17T05:03:17.609Z,22.07
2018-05-17T05:05:44.994Z,22.43
2018-05-17T05:08:12.394Z,21.80
2018-05-17T05:10:39.783Z,22.30
2018-05-17T05:13:07.167Z,22.00
2018-05-17T05:15:34.559Z,22.50
2018-05-17T05:18:01.992Z,21.03
2018-05-17T05:20:29.388Z,21.17
2018-05-17T05:22:56.799Z,21.90
2018-05-17T05:25:24.298Z,20.70
2018-05-17T05:27:51.602Z,21.03
2018-05-17T05:30:18.995Z,20.73
2018-05-17T05:32:46.399Z,20.93
2018-05-17T05:35:13.775Z,18.53
2018-05-17T05:37:41.202Z,19.80
2018-05-17T05:40:08.555Z,21.20
2018-05-17T05:42:35.958Z,19.57
2018-05-17T05:45:03.347Z,21.77
2018-05-17T05:47:30.748Z,22.23
2018-05-17T05:49:58.211Z,21.53
2018-05-17T05:52:25.604Z,18.83
2018-05-17T05:54:52.998Z,20.00
2018-05-17T05:57:20.398Z,20.13
2018-05-17T05:59:47.802Z,19.03
2018-05-17T06:02:15.189Z,18.43
2018-05-17T06:04:42.579Z,18.20
2018-05-17T06:07:10.043Z,17.53
2018-05-17T06:09:37.367Z,17.67
2018-05-17T06:12:04.756Z,17.40
2018-05-17T06:14:32.167Z,16.73
2018-05-17T06:16:59.572Z,17.57
2018-05-17T06:19:26.980Z,16.40
2018-05-17T06:21:54.375Z,16.63
2018-05-17T06:24:21.826Z,17.00
2018-05-17T06:26:49.203Z,17.60
2018-05-17T06:29:16.589Z,17.23
2018-05-17T06:31:43.990Z,16.90
2018-05-17T06:34:11.461Z,14.83
2018-05-17T06:36:38.831Z,15.83
2018-05-17T06:39:06.225Z,15.20
2018-05-17T06:41:33.615Z,15.63
2018-05-17T06:44:01.027Z,14.73
2018-05-17T06:46:28.398Z,13.80
2018-05-17T06:48:55.786Z,16.27
2018-05-17T06:51:23.174Z,16.47
2018-05-17T06:53:50.568Z,16.90
2018-05-17T06:56:17.959Z,17.70
2018-05-17T06:58:45.355Z,16.83
2018-05-17T07:01:12.784Z,17.03
2018-05-17T07:03:40.139Z,17.00
2018-05-17T07:06:07.539Z,15.57
2018-05-17T07:08:34.928Z,16.23
2018-05-17T07:11:02.322Z,16.40
2018-05-17T07:13:29.920Z,16.23
2018-05-17T07:15:57.307Z,17.20
2018-05-17T07:18:24.882Z,16.60
2018-05-17T07:20:52.090Z,16.50
2018-05-17T07:23:19.491Z,16.23
2018-05-17T07:25:46.884Z,20.53
2018-05-17T07:28:14.276Z,25.17
2018-05-17T07:30:41.727Z,30.03
2018-05-17T07:33:09.116Z,32.40
2018-05-17T07:35:36.510Z,31.70
2018-05-17T07:38:03.894Z,32.90
2018-05-17T07:40:31.308Z,30.10
2018-05-17T07:42:58.690Z,31.27
2018-05-17T07:45:26.120Z,33.10
2018-05-17T07:47:53.663Z,32.83
2018-05-17T07:50:21.047Z,35.73
2018-05-17T07:52:48.443Z,34.77
2018-05-17T07:55:15.831Z,31.73
2018-05-17T07:57:43.226Z,33.43
2018-05-17T08:00:10.615Z,34.50
2018-05-17T08:02:38.023Z,36.00
2018-05-17T08:05:05.406Z,38.57
2018-05-17T08:07:32.810Z,35.50
2018-05-17T08:10:00.203Z,33.57
2018-05-17T08:12:27.670Z,35.77
2018-05-17T08:14:55.185Z,38.57
2018-05-17T08:17:22.563Z,39.70
2018-05-17T08:19:49.951Z,36.10
2018-05-17T08:22:17.347Z,38.13
2018-05-17T08:24:44.747Z,37.63
2018-05-17T08:27:12.163Z,37.83
2018-05-17T08:29:39.543Z,38.20
2018-05-17T08:32:06.935Z,41.10
2018-05-17T08:34:34.326Z,37.63
2018-05-17T08:37:01.832Z,40.50
2018-05-17T08:39:29.225Z,38.60
2018-05-17T08:41:56.625Z,40.10
2018-05-17T08:44:24.007Z,40.30
2018-05-17T08:46:51.395Z,37.37
2018-05-17T08:49:18.787Z,37.63
2018-05-17T08:51:46.175Z,39.97
2018-05-17T08:54:13.571Z,40.40
2018-05-17T08:56:40.955Z,41.20
2018-05-17T08:59:08.358Z,41.03
2018-05-17T09:01:35.750Z,34.20
2018-05-17T09:04:03.135Z,33.57
2018-05-17T09:06:30.587Z,32.67
2018-05-17T09:08:58.005Z,33.57
2018-05-17T09:11:25.360Z,33.23
2018-05-17T09:13:52.881Z,33.90
2018-05-17T09:16:20.175Z,33.57
2018-05-17T09:18:47.607Z,35.80
2018-05-17T09:21:14.970Z,32.87
2018-05-17T09:23:42.362Z,35.70
2018-05-17T09:26:09.759Z,36.27
2018-05-17T09:28:37.160Z,34.00
2018-05-17T09:31:04.539Z,35.47
2018-05-17T09:33:31.939Z,36.60
2018-05-17T09:35:59.327Z,33.40
2018-05-17T09:38:26.779Z,31.87
2018-05-17T09:40:54.173Z,31.67
2018-05-17T09:43:21.559Z,30.47
2018-05-17T09:45:49.003Z,30.00
2018-05-17T09:48:16.392Z,29.50
2018-05-17T09:50:43.787Z,27.13
2018-05-17T09:53:11.175Z,26.23
2018-05-17T09:55:38.563Z,27.17
2018-05-17T09:58:06.079Z,26.37
2018-05-17T10:00:33.495Z,27.57
2018-05-17T10:03:00.883Z,25.07
2018-05-17T10:05:28.338Z,25.17
2018-05-17T10:07:55.732Z,25.57
2018-05-17T10:10:23.127Z,26.90
2018-05-17T10:12:50.518Z,27.73
2018-05-17T10:15:17.906Z,26.03
2018-05-17T10:17:45.295Z,24.87
2018-05-17T10:20:12.698Z,27.47
2018-05-17T10:22:40.098Z,29.60
2018-05-17T10:25:07.491Z,28.67
2018-05-17T10:27:34.891Z,29.67
2018-05-17T10:30:02.274Z,26.40
2018-05-17T10:32:29.663Z,28.10
2018-05-17T10:34:57.059Z,28.20
2018-05-17T10:37:24.453Z,29.60
2018-05-17T10:39:51.831Z,26.70
2018-05-17T10:42:19.294Z,23.57
2018-05-17T10:44:46.630Z,20.80
2018-05-17T10:47:14.011Z,20.87
2018-05-17T10:49:41.398Z,20.50
2018-05-17T10:52:08.803Z,20.00
2018-05-17T10:54:36.304Z,19.87
2018-05-17T10:57:03.622Z,20.20
2018-05-17T10:59:31.011Z,19.20
2018-05-17T11:01:58.410Z,21.40
2018-05-17T11:04:25.795Z,19.13
2018-05-17T11:06:53.186Z,17.93
2018-05-17T11:09:20.706Z,19.17
2018-05-17T11:11:48.091Z,17.40
2018-05-17T11:14:15.478Z,20.10
2018-05-17T11:16:42.878Z,17.17
2018-05-17T11:19:10.266Z,17.50
2018-05-17T11:21:37.656Z,18.80
2018-05-17T11:24:05.059Z,16.57
2018-05-17T11:26:32.452Z,14.03
2018-05-17T11:28:59.848Z,16.90
2018-05-17T11:31:27.237Z,16.03
2018-05-17T11:33:54.627Z,17.13
2018-05-17T11:36:22.017Z,15.63
2018-05-17T11:38:49.403Z,15.57
2018-05-17T11:41:16.806Z,15.23
2018-05-17T11:43:44.204Z,14.13
2018-05-17T11:46:11.598Z,15.47
2018-05-17T11:48:38.980Z,13.90
2018-05-17T11:51:06.391Z,15.10
2018-05-17T11:53:33.770Z,14.70
2018-05-17T11:56:01.165Z,15.30
2018-05-17T11:58:28.558Z,15.50
2018-05-17T12:00:55.951Z,14.97
2018-05-17T12:03:23.342Z,16.10
2018-05-17T12:05:50.734Z,15.80
2018-05-17T12:08:18.122Z,15.80
2018-05-17T12:10:45.507Z,14.73
2018-05-17T12:13:12.903Z,14.73
2018-05-17T12:15:40.286Z,15.90
2018-05-17T12:18:07.679Z,15.53
2018-05-17T12:20:35.083Z,15.80
2018-05-17T12:23:02.563Z,15.33
2018-05-17T12:25:29.870Z,17.37
2018-05-17T12:27:57.258Z,17.10
2018-05-17T12:30:24.651Z,16.77
2018-05-17T12:32:52.039Z,15.50
2018-05-17T12:35:19.439Z,16.30
2018-05-17T12:37:46.826Z,15.60
2018-05-17T12:40:14.215Z,16.00
2018-05-17T12:42:41.638Z,15.37
2018-05-17T12:45:08.989Z,15.50
2018-05-17T12:47:36.387Z,14.80
2018-05-17T12:50:03.782Z,16.00
2018-05-17T12:52:31.175Z,16.37
2018-05-17T12:54:58.559Z,15.60
2018-05-17T12:57:25.967Z,14.40
2018-05-17T12:59:53.346Z,14.50
2018-05-17T13:02:20.738Z,14.50
2018-05-17T13:04:48.131Z,15.03
2018-05-17T13:07:15.531Z,15.00
2018-05-17T13:09:42.919Z,14.87
2018-05-17T13:12:10.303Z,15.30
2018-05-17T13:14:37.696Z,14.50
2018-05-17T13:17:05.088Z,15.43
2018-05-17T13:19:32.486Z,15.30
2018-05-17T13:21:59.874Z,14.40
2018-05-17T13:24:27.278Z,14.27
2018-05-17T13:26:54.666Z,15.43
2018-05-17T13:29:22.063Z,14.40
2018-05-17T13:31:49.450Z,13.70
2018-05-17T13:34:16.917Z,14.37
2018-05-17T13:36:44.239Z,14.77
2018-05-17T13:39:11.629Z,14.40
2018-05-17T13:41:39.013Z,14.37
2018-05-17T13:44:06.399Z,14.20
2018-05-17T13:46:33.791Z,13.63
2018-05-17T13:49:01.233Z,13.53
2018-05-17T13:51:28.558Z,13.10
2018-05-17T13:53:55.951Z,13.97
2018-05-17T13:56:23.349Z,14.00
2018-05-17T13:58:50.734Z,14.30
2018-05-17T14:01:18.135Z,13.63
2018-05-17T14:03:45.529Z,15.10
2018-05-17T14:06:12.919Z,14.23
2018-05-17T14:08:40.311Z,13.60
2018-05-17T14:11:07.707Z,13.53
2018-05-17T14:13:35.103Z,13.60
2018-05-17T14:16:02.494Z,14.10
2018-05-17T14:18:29.891Z,14.10
2018-05-17T14:20:57.275Z,13.33
2018-05-17T14:23:24.679Z,13.73
2018-05-17T14:25:52.070Z,13.07
2018-05-17T14:28:19.572Z,13.83
2018-05-17T14:30:46.870Z,14.10
2018-05-17T14:33:14.261Z,13.43
2018-05-17T14:35:41.661Z,14.30
2018-05-17T14:38:09.043Z,14.17
2018-05-17T14:40:36.447Z,13.33
2018-05-17T14:43:04.436Z,13.87
2018-05-17T14:45:31.862Z,12.17
2018-05-17T14:47:59.254Z,12.83
2018-05-17T14:50:26.647Z,12.60
2018-05-17T14:52:54.026Z,12.83
2018-05-17T14:55:21.517Z,11.27
2018-05-17T14:57:48.902Z,13.60
2018-05-17T15:00:16.291Z,14.70
2018-05-17T15:02:43.683Z,14.37
2018-05-17T15:05:11.127Z,14.37
2018-05-17T15:07:38.620Z,14.20
2018-05-17T15:10:07.685Z,14.60
2018-05-17T15:12:35.320Z,13.40
2018-05-17T15:15:02.715Z,13.17
2018-05-17T15:17:30.110Z,12.37
2018-05-17T15:19:57.499Z,14.80
2018-05-17T15:22:24.942Z,13.80
2018-05-17T15:24:52.330Z,12.30
2018-05-17T15:27:19.828Z,12.97
2018-05-17T15:29:47.266Z,11.90
2018-05-17T15:32:14.530Z,12.87
2018-05-17T15:34:41.923Z,12.00
2018-05-17T15:37:09.319Z,12.03
2018-05-17T15:39:36.728Z,11.10
2018-05-17T15:42:04.115Z,12.63
2018-05-17T15:44:31.499Z,11.90
2018-05-17T15:46:58.892Z,11.60
2018-05-17T15:49:26.289Z,10.80
2018-05-17T15:51:53.674Z,11.03
2018-05-17T15:54:21.075Z,10.63
2018-05-17T15:56:48.467Z,11.97
2018-05-17T15:59:15.883Z,12.00
2018-05-17T16:01:43.271Z,12.10
2018-05-17T16:04:10.725Z,12.90
2018-05-17T16:06:38.071Z,12.20
2018-05-17T16:09:06.254Z,12.30
2018-05-17T16:11:33.672Z,12.20
2018-05-17T16:14:01.083Z,11.47
2018-05-17T16:16:28.507Z,13.40
2018-05-17T16:18:55.905Z,12.50
2018-05-17T16:21:23.356Z,11.50
2018-05-17T16:23:50.742Z,11.70
2018-05-17T16:26:18.131Z,11.80
2018-05-17T16:28:45.527Z,13.23
2018-05-17T16:31:12.915Z,12.73
2018-05-17T16:33:40.306Z,12.33
2018-05-17T16:36:07.691Z,13.20
2018-05-17T16:38:35.090Z,13.50
2018-05-17T16:41:02.480Z,12.57
2018-05-17T16:43:29.867Z,12.40
2018-05-17T16:45:57.259Z,12.80
2018-05-17T16:48:24.767Z,12.73
2018-05-17T16:50:52.043Z,11.50
2018-05-17T16:53:19.575Z,12.50
2018-05-17T16:55:46.831Z,11.50
2018-05-17T16:58:14.235Z,12.03
2018-05-17T17:00:41.732Z,11.30
2018-05-17T17:03:09.038Z,12.40
2018-05-17T17:05:36.430Z,11.83
2018-05-17T17:08:04.265Z,11.23
2018-05-17T17:10:31.658Z,12.03
2018-05-17T17:12:59.050Z,12.20
2018-05-17T17:15:26.445Z,11.20
2018-05-17T17:17:53.906Z,12.10
2018-05-17T17:20:21.307Z,11.90
2018-05-17T17:22:48.704Z,12.93
2018-05-17T17:25:16.091Z,12.07
2018-05-17T17:27:43.478Z,11.80
2018-05-17T17:30:10.871Z,11.67
2018-05-17T17:32:38.263Z,11.80
2018-05-17T17:35:05.673Z,11.70
2018-05-17T17:37:33.063Z,11.53
2018-05-17T17:40:00.448Z,11.80
2018-05-17T17:42:27.839Z,12.40
2018-05-17T17:44:55.251Z,12.67
2018-05-17T17:47:22.689Z,12.63
2018-05-17T17:49:50.275Z,12.20
2018-05-17T17:52:17.607Z,12.60
2018-05-17T17:54:44.987Z,13.30
2018-05-17T17:57:12.499Z,12.50
2018-05-17T17:59:39.967Z,13.23
2018-05-17T18:02:07.363Z,12.77
2018-05-17T18:04:35.053Z,12.70
2018-05-17T18:07:02.524Z,12.53
2018-05-17T18:09:29.919Z,12.43
2018-05-17T18:11:59.094Z,12.57
2018-05-17T18:14:26.875Z,12.97
2018-05-17T18:16:55.820Z,13.17
2018-05-17T18:19:23.278Z,12.70
2018-05-17T18:21:50.711Z,13.00
2018-05-17T18:24:18.157Z,12.97
2018-05-17T18:26:45.534Z,12.93
2018-05-17T18:29:12.931Z,12.73
2018-05-17T18:31:40.314Z,12.93
2018-05-17T18:34:07.719Z,14.90
2018-05-17T18:36:35.109Z,13.00
2018-05-17T18:39:02.487Z,13.80
2018-05-17T18:41:29.868Z,13.40
2018-05-17T18:43:57.262Z,13.00
2018-05-17T18:46:24.652Z,13.33
2018-05-17T18:48:52.169Z,14.20
2018-05-17T18:51:19.627Z,13.90
2018-05-17T18:53:47.038Z,13.90
2018-05-17T18:56:14.541Z,13.40
2018-05-17T18:58:41.950Z,14.10
2018-05-17T19:01:09.342Z,13.20
2018-05-17T19:03:36.778Z,13.90
2018-05-17T19:06:04.176Z,12.13
2018-05-17T19:08:31.586Z,13.30
2018-05-17T19:10:58.998Z,12.60
2018-05-17T19:13:26.395Z,13.67
2018-05-17T19:15:53.788Z,12.87
2018-05-17T19:18:21.179Z,13.63
2018-05-17T19:20:48.581Z,13.53
2018-05-17T19:23:15.980Z,12.90
2018-05-17T19:25:43.485Z,13.00
2018-05-17T19:28:10.862Z,13.00
2018-05-17T19:30:38.266Z,13.07
2018-05-17T19:33:06.412Z,13.17
2018-05-17T19:35:33.798Z,13.13
2018-05-17T19:38:01.195Z,13.03
2018-05-17T19:40:28.758Z,13.40
2018-05-17T19:42:56.150Z,13.93
2018-05-17T19:45:23.639Z,13.90
2018-05-17T19:47:50.940Z,13.43
2018-05-17T19:50:18.335Z,13.87
2018-05-17T19:52:45.754Z,13.27
2018-05-17T19:55:13.231Z,14.13
2018-05-17T19:57:40.626Z,14.70
2018-05-17T20:00:08.011Z,14.47
2018-05-17T20:02:35.432Z,14.50
2018-05-17T20:05:02.867Z,14.10
2018-05-17T20:07:30.207Z,14.90
2018-05-17T20:09:57.598Z,15.13
2018-05-17T20:12:24.987Z,14.93
2018-05-17T20:14:52.383Z,14.77
2018-05-17T20:17:19.771Z,14.23
2018-05-17T20:19:47.175Z,13.80
2018-05-17T20:22:14.559Z,12.80
2018-05-17T20:24:41.963Z,14.00
2018-05-17T20:27:09.355Z,14.90
2018-05-17T20:29:36.755Z,16.43
2018-05-17T20:32:04.144Z,15.73
2018-05-17T20:34:31.539Z,15.83
2018-05-17T20:36:58.919Z,15.63
2018-05-17T20:39:26.315Z,15.60
2018-05-17T20:41:53.707Z,15.80
2018-05-17T20:44:21.102Z,14.87
2018-05-17T20:46:48.498Z,15.17
2018-05-17T20:49:15.968Z,16.60
2018-05-17T20:51:43.362Z,16.03
2018-05-17T20:54:10.780Z,15.37
2018-05-17T20:56:38.226Z,16.33
2018-05-17T20:59:05.595Z,14.60
2018-05-17T21:01:32.986Z,16.00
2018-05-17T21:04:00.375Z,16.10
2018-05-17T21:06:27.780Z,16.70
2018-05-17T21:08:55.176Z,17.43
2018-05-17T21:11:22.575Z,16.47
2018-05-17T21:13:49.975Z,16.80
2018-05-17T21:16:17.366Z,17.13
2018-05-17T21:18:44.770Z,16.53
2018-05-17T21:21:12.191Z,17.70
2018-05-17T21:23:39.575Z,17.70
2018-05-17T21:26:06.970Z,17.23
2018-05-17T21:28:34.358Z,17.53
2018-05-17T21:31:01.744Z,17.33
2018-05-17T21:33:29.139Z,16.70
2018-05-17T21:35:56.519Z,18.20
2018-05-17T21:38:23.918Z,17.67
2018-05-17T21:40:51.302Z,17.23
2018-05-17T21:43:18.700Z,17.37
2018-05-17T21:45:46.091Z,17.67
2018-05-17T21:48:13.481Z,17.70
2018-05-17T21:50:40.871Z,18.17
2018-05-17T21:53:08.267Z,17.10
2018-05-17T21:55:35.785Z,18.40
2018-05-17T21:58:03.202Z,17.63
2018-05-17T22:00:30.594Z,17.60
2018-05-17T22:02:57.990Z,18.27
2018-05-17T22:05:25.377Z,17.60
2018-05-17T22:07:52.758Z,16.47
2018-05-17T22:10:20.162Z,17.73
2018-05-17T22:12:47.555Z,17.53
2018-05-17T22:15:14.950Z,17.83
2018-05-17T22:17:42.337Z,19.70
2018-05-17T22:20:09.843Z,16.10
2018-05-17T22:22:37.223Z,18.47
2018-05-17T22:25:04.615Z,18.23
2018-05-17T22:27:32.002Z,17.80
2018-05-17T22:29:59.399Z,18.57
2018-05-17T22:32:26.803Z,18.33
2018-05-17T22:34:54.191Z,18.43
2018-05-17T22:37:21.579Z,17.33
2018-05-17T22:39:48.964Z,18.10
2018-05-17T22:42:16.359Z,17.23
2018-05-17T22:44:43.744Z,19.03
2018-05-17T22:47:11.147Z,18.00
2018-05-17T22:49:38.530Z,19.40
2018-05-17T22:52:06.026Z,17.80
2018-05-17T22:54:33.415Z,18.67
2018-05-17T22:57:10.463Z,17.90
2018-05-17T22:59:37.854Z,18.10
2018-05-17T23:02:05.250Z,19.77
2018-05-17T23:04:32.653Z,19.30
2018-05-17T23:07:00.058Z,19.07
2018-05-17T23:09:27.447Z,18.87
2018-05-17T23:11:54.835Z,18.10
2018-05-17T23:14:22.222Z,18.33
2018-05-17T23:16:49.615Z,18.90
2018-05-17T23:19:17.008Z,17.97
2018-05-17T23:21:44.398Z,18.40
2018-05-17T23:24:11.783Z,18.30
2018-05-17T23:26:39.170Z,19.13
2018-05-17T23:29:06.702Z,19.20
2018-05-17T23:31:34.087Z,18.50
2018-05-17T23:34:01.479Z,19.63
2018-05-17T23:36:28.867Z,18.23
2018-05-17T23:38:56.273Z,19.33
2018-05-17T23:44:22.412Z,19.90
2018-05-17T23:46:49.802Z,19.10
2018-05-17T23:49:17.190Z,20.17
2018-05-17T23:51:44.574Z,19.33
2018-05-17T23:54:12.398Z,19.83
2018-05-17T23:56:39.787Z,18.87
2018-05-17T23:59:07.174Z,18.87
